Tiempo atmosférico en la estación meteorológica de Puerto El Pico, Ávila (1285 m.)



Fecha
DESCASC
Temp. máxima en grados centígrados (hora)
DESCASC
Temp. mínima en grados centígrados (hora)
DESCASC
Temp. media en grados centígrados
DESCASC
Racha de viento máxima en m/sg (hora)
DESCASC
Velocidad máxima media en intervalos de 10 minutos(hora)
DESCASC
Precipitaciones diarias en mm
DESCASC
Precipitaciones de 00:00 a 06:00 en mm
DESCASC
Precipitaciones de 06:00 a 12:00 en mm
DESCASC
Precipitaciones de 12:00 a 18:00 en mm
DESCASC
Precipitaciones de 18:00 a 24:00 en mm
DESCASC
20-10-2019 8 (00:20) 0.6 (23:59) 4.3 10.56 (14:10) 5.83 (15:50) 6.6 2.2 4.4 0 0
19-10-2019 9 (20:50) 3.7 (05:40) 6.4 13.06 (13:20) 7.78 (11:10) 44.6 0 0 11.8 32.8
18-10-2019 13.9 (18:10) 8.5 (23:50) 11.2 12.78 (17:30) 6.39 (17:10) 2.6 1.4 1 0.2 0
17-10-2019 13 (13:50) 3.7 (00:00) 8.4 9.72 (14:20) 6.11 (14:20) 1.8 0 1 0 0.8
16-10-2019 12.9 (16:50) -2 (-00:0) 5.4 10.56 (15:00) 6.11 (16:00) 0 0 0 0 0
15-10-2019 11.4 (16:40) 0 (00:00) 5.7 9.17 (15:20) 5.28 (15:50) 0.2 0.2 0 0 0
14-10-2019 15.3 (01:50) 4.1 (00:00) 9.7 15.83 (09:40) 8.06 (09:50) 15.4 0 5.4 9.8 0.2
13-10-2019 17.4 (17:40) 8.8 (00:00) 13.1 11.94 (11:30) 6.11 (11:30) 0 0 0 0 0
12-10-2019 21.5 (14:50) 11.8 (00:00) 16.7 10.83 (18:20) 4.72 (11:00) 0 0 0 0 0
11-10-2019 21.9 (15:40) 3.2 (00:00) 12.5 10.28 (17:00) 5.28 (19:40) 0 0 0 0 0
10-10-2019 22.5 (16:50) -0.3 (00:00) 11.1 10.28 (15:00) 5.83 (15:20) 0 0 0 0 0
09-10-2019 24.3 (16:50) 5.6 (00:00) 14.9 8.61 (14:40) 4.72 (14:40) 0 0 0 0 0
08-10-2019 25.1 (17:20) 3.8 (00:00) 14.5 9.17 (16:30) 5 (14:10) 0 0 0 0 0
07-10-2019 25.3 (16:20) 4.8 (00:00) 15 9.17 (12:50) 6.11 (12:50) 0 0 0 0 0
06-10-2019 24.5 (18:10) -0.2 (00:00) 12.1 7.22 (14:20) 4.44 (13:30) 0 0 0 0 0
05-10-2019 22.6 (16:00) 1.4 (00:00) 12 8.33 (15:10) 4.72 (15:00) 0 0 0 0 0
04-10-2019 22.3 (16:10) 1.5 (00:00) 11.9 9.44 (13:30) 5.28 (14:10) 0 0 0 0 0
03-10-2019 24.2 (17:10) -0.3 (00:00) 12 7.5 (14:30) 4.72 (14:00) 0 0 0 0 0
02-10-2019 21.6 (17:50) 3.7 (00:00) 12.7 8.33 (13:30) 6.11 (13:30) 0 0 0 0 0
01-10-2019 20.5 (17:40) 2.8 (00:00) 11.6 11.11 (14:50) 6.39 (13:50) 0 0 0 0 0
30-09-2019 24.4 (16:50) 0.9 (00:00) 12.6 9.44 (15:50) 5.28 (16:10) 0 0 0 0 0
29-09-2019 24.5 (16:20) 1.9 (00:00) 13.2 9.44 (14:40) 5 (14:10) 0 0 0 0 0
28-09-2019 23.9 (17:20) 1.1 (00:00) 12.5 8.61 (14:50) 4.72 (14:50) 0 0 0 0 0
27-09-2019 24.3 (17:10) 2.9 (00:00) 13.6 7.5 (15:00) 4.44 (15:00) 0 0 0 0 0
26-09-2019 22.4 (17:10) 3.7 (00:00) 13 9.44 (14:20) 5.28 (14:10) 0 0 0 0 0
25-09-2019 20.7 (17:50) 7.3 (00:00) 14 7.22 (06:20) 4.44 (05:00) 0 0 0 0 0
24-09-2019 22.4 (12:10) 3.5 (00:00) 12.9 9.17 (16:20) 5 (16:30) 0 0 0 0 0
23-09-2019 19.6 (17:40) 2.7 (00:00) 11.2 10.28 (14:40) 5.56 (13:50) 0 0 0 0 0
22-09-2019 17.3 (14:40) 6.3 (00:00) 11.8 16.67 (02:00) 8.89 (02:00) 16.4 13.8 2.6 0 0

Gráficas

Temp. máximas Temp. mínimas Temp. medias Precipitaciones Rachas de viento máximas Velocidades máximas media en intervalos de 10 minutos

Datos horarios

Fecha y hora oficial Temperatura (ºC) Velocidad del viento (km/h) Dirección del viento Racha (km/h) Dirección de racha Precipitación (mm) Presión (hPa) Tendencia (hPa) Humedad (%)
2019-10-21 23:00:00 -1.4 0 Calma 8 Sur 0 -- -- 100
2019-10-21 22:00:00 -0.5 6 Sur 9 Sudoeste 0 -- -- 100
2019-10-21 21:00:00 0.4 5 Sur 9 Sur 0 -- -- 98
2019-10-21 20:00:00 1.1 4 Sur 14 Sur 0 -- -- 97
2019-10-21 19:00:00 3.1 10 Sur 24 Sur 3 -- -- 93
2019-10-21 18:00:00 8 8 Sur 15 Sur 0 -- -- 73
2019-10-21 17:00:00 9.6 8 Sur 20 Oeste 0 -- -- 70
2019-10-21 16:00:00 9.8 6 Sur 15 Sur 0 -- -- 70
2019-10-21 15:00:00 7.2 6 Norte 13 Norte 0.6 -- -- 81
2019-10-21 14:00:00 4.3 6 Sur 19 Sur 2 -- -- 93
2019-10-21 13:00:00 5 9 Sur 17 Sudoeste 0.6 -- -- 92
2019-10-21 12:00:00 2.6 0 Calma 4 Norte 0.4 -- -- 98
2019-10-21 11:00:00 0.9 2 Norte 4 Noroeste 0 -- -- 99
2019-10-21 10:00:00 -0.6 0 Calma 5 Sudoeste 0 -- -- 99
2019-10-21 09:00:00 -2.7 0 Calma 7 Sur 0 -- -- 100
2019-10-21 08:00:00 -3.3 5 Sur 6 Sudoeste 0 -- -- 100
2019-10-21 07:00:00 -3.5 0 Calma 6 Sudoeste 0 -- -- 99
2019-10-21 06:00:00 -2.9 2 Sur 6 Sur 0 -- -- 100
2019-10-21 05:00:00 -3 0 Calma 4 Sur 0 -- -- 100
2019-10-21 04:00:00 -2.7 2 Sur 6 Sudoeste 0 -- -- 100
2019-10-21 03:00:00 -2.3 2 Sur 5 Sudoeste 0 -- -- 100
2019-10-21 02:00:00 -1.7 4 Sur 7 Sur 0 -- -- 100
2019-10-21 01:00:00 -0.9 2 Sur 4 Sur 0 -- -- 99
2019-10-21 00:00:00 0.6 0 Calma 10 Nordeste 0 -- -- 96
2019-10-20 23:00:00 2.7 5 Nordeste 15 Norte 0 -- -- 93
2019-10-20 22:00:00 3.5 6 Nordeste 13 Nordeste 0 -- -- 92
2019-10-20 21:00:00 3.5 5 Norte 10 Nordeste 0 -- -- 93
2019-10-20 20:00:00 4.3 5 Norte 17 Norte 0 -- -- 89
2019-10-20 19:00:00 6 10 Norte 21 Norte 0 -- -- 80
2019-10-20 18:00:00 6.7 13 Norte 30 Norte 0 -- -- 79
2019-10-20 17:00:00 7.3 13 Norte 28 Norte 0 -- -- 76
2019-10-20 16:00:00 6.3 20 Norte 30 Norte 0 -- -- 81
2019-10-20 15:00:00 6.7 14 Norte 38 Norte 0 -- -- 80
2019-10-20 14:00:00 7.8 6 Norte 23 Norte 0 -- -- 82
2019-10-20 13:00:00 6.8 9 Noroeste 22 Noroeste 0 -- -- 85
2019-10-20 12:00:00 6.3 8 Norte 14 Noroeste 0.2 -- -- 90
2019-10-20 11:00:00 6.7 3 Norte 10 Sudoeste 0 -- -- 94
2019-10-20 10:00:00 4.5 7 Sudoeste 10 Sur 0.8 -- -- 100
2019-10-20 09:00:00 4.3 2 Oeste 19 Sur 1.8 -- -- 100
2019-10-20 08:00:00 4.6 8 Sur 20 Sur 0.6 -- -- 100
2019-10-20 07:00:00 4.7 9 Sur 23 Sur 1 -- -- 100
2019-10-20 06:00:00 4.7 10 Sur 19 Sur 0.6 -- -- 100
2019-10-20 05:00:00 5 4 Sudoeste 15 Sudoeste 0.2 -- -- 100
2019-10-20 04:00:00 5.4 8 Sur 19 Sudoeste 1.4 -- -- 100
2019-10-20 03:00:00 5.9 7 Sur 18 Sur 0 -- -- 99
2019-10-20 02:00:00 6.6 10 Sur 30 Sur 0 -- -- 99
2019-10-20 01:00:00 7.4 13 Sur 28 Sur 0 -- -- 98
2019-10-20 00:00:00 7.9 12 Sudoeste 27 Sudoeste 0 -- -- 98
2019-10-19 23:00:00 8.6 15 Sudoeste 36 Oeste 1.4 -- -- 99
2019-10-19 22:00:00 8.9 14 Sur 31 Sur 5.8 -- -- 99
2019-10-19 21:00:00 8.9 17 Sur 37 Sudoeste 7.8 -- -- 97
2019-10-19 20:00:00 8.9 12 Sudoeste 39 Sudoeste 7.2 -- -- 99
2019-10-19 19:00:00 8.6 22 Sur 36 Sur 10.6 -- -- 99
2019-10-19 18:00:00 8.4 10 Sur 26 Sur 5.8 -- -- 99
2019-10-19 17:00:00 7.8 11 Sudoeste 33 Sur 3.4 -- -- 99
2019-10-19 16:00:00 7.3 18 Sur 39 Sur 2 -- -- 99
2019-10-19 15:00:00 7.3 22 Sur 44 Sudoeste 0.6 -- -- 99
2019-10-19 14:00:00 7.4 19 Sur 47 Sudoeste 0 -- -- 99
2019-10-19 13:00:00 7.7 17 Sur 41 Sur 0 -- -- 95
2019-10-19 12:00:00 8 15 Sur 43 Sudeste 0 -- -- 87
2019-10-19 11:00:00 8.3 26 Sur 46 Sudoeste 0 -- -- 81
2019-10-19 10:00:00 6.7 23 Sur 41 Sudoeste 0 -- -- 88
2019-10-19 09:00:00 6.7 17 Sur 37 Sur 0 -- -- 92
2019-10-19 08:00:00 6.9 21 Sur 41 Sur 0 -- -- 86
2019-10-19 07:00:00 6.1 12 Sudoeste 34 Sudoeste 0 -- -- 94
2019-10-19 06:00:00 4.1 0 Calma 9 Nordeste 0 -- -- 97
2019-10-19 05:00:00 5.3 2 Sur 36 Sur 0 -- -- 89
2019-10-19 04:00:00 7.2 17 Sur 41 Sur 0 -- -- 91
2019-10-19 03:00:00 7.4 17 Sur 44 Sur 0 -- -- 87
2019-10-19 02:00:00 8.1 19 Sur 41 Sudeste 0 -- -- 84
2019-10-19 01:00:00 8.5 14 Sudoeste 35 Sur 0 -- -- 86
2019-10-19 00:00:00 8.7 9 Sudoeste 37 Sur 0 -- -- 84
2019-10-18 23:00:00 9.1 15 Sur 40 Sur 0 -- -- 84
2019-10-18 22:00:00 9.7 18 Sur 36 Sur 0 -- -- 88
2019-10-18 21:00:00 10.4 18 Sur 32 Sur 0 -- -- 87
2019-10-18 20:00:00 10.9 16 Sur 36 Sudeste 0 -- -- 84
2019-10-18 19:00:00 11.7 18 Sur 37 Sur 0 -- -- 81
2019-10-18 18:00:00 13.6 23 Sur 46 Sur 0 -- -- 80
2019-10-18 17:00:00 13 22 Sur 45 Sur 0 -- -- 82
2019-10-18 16:00:00 12.7 17 Sur 37 Sur 0.2 -- -- 86
2019-10-18 15:00:00 12.4 19 Sur 32 Sudeste 0 -- -- 97
2019-10-18 14:00:00 13 17 Sur 36 Sur 0 -- -- 89
2019-10-18 13:00:00 12.9 17 Sur 31 Sudeste 0 -- -- 90
2019-10-18 12:00:00 11.9 20 Sur 39 Sur 0.2 -- -- 98
2019-10-18 11:00:00 12.2 8 Sur 27 Sudoeste 0.2 -- -- 100
2019-10-18 10:00:00 11.4 5 Sudoeste 15 Sudeste 0 -- -- 100
2019-10-18 09:00:00 11.5 6 Sur 18 Sudoeste 0.4 -- -- 100
2019-10-18 08:00:00 11.7 8 Sur 31 Sur 0 -- -- 100
2019-10-18 07:00:00 11.8 15 Sur 33 Sur 0.2 -- -- 100
2019-10-18 06:00:00 11.6 16 Sur 30 Sudoeste 0.4 -- -- 100
2019-10-18 05:00:00 11.4 9 Sur 30 Sur 0.4 -- -- 99
2019-10-18 04:00:00 11.4 13 Sur 29 Sudoeste 0.2 -- -- 99
2019-10-18 03:00:00 11.3 12 Sudoeste 27 Sur 0.2 -- -- 99
2019-10-18 02:00:00 11.2 10 Sudoeste 31 Sudoeste 0 -- -- 99
2019-10-18 01:00:00 11.3 12 Sur 25 Sur 0.2 -- -- 99
2019-10-18 00:00:00 11.4 12 Sur 24 Sudoeste 0.2 -- -- 99
2019-10-17 23:00:00 11.3 9 Sur 30 Sudoeste 0.4 -- -- 98
2019-10-17 22:00:00 11 12 Sur 24 Sudoeste 0.2 -- -- 98
2019-10-17 21:00:00 10.6 12 Sur 27 Sur 0 -- -- 98
2019-10-17 20:00:00 10.6 13 Sur 26 Sudoeste 0 -- -- 97
2019-10-17 19:00:00 10.7 14 Sur 28 Sur 0 -- -- 97
2019-10-17 18:00:00 10.7 15 Sur 31 Sur 0 -- -- 96
2019-10-17 17:00:00 11.3 17 Sur 34 Sudoeste 0 -- -- 94
2019-10-17 16:00:00 11.4 20 Sur 34 Sur 0 -- -- 94
2019-10-17 15:00:00 11.3 18 Sur 35 Sur 0 -- -- 92
2019-10-17 14:00:00 13 17 Sur 34 Sur 0 -- -- 84
2019-10-17 13:00:00 11.4 16 Sur 27 Sudoeste 0 -- -- 89
2019-10-17 12:00:00 10.2 13 Sur 27 Sudoeste 0 -- -- 94
2019-10-17 11:00:00 9.7 12 Sur 26 Sur 0 -- -- 94
2019-10-17 10:00:00 8.6 10 Sudoeste 20 Sur 0 -- -- 94
2019-10-17 09:00:00 7.7 15 Sur 23 Sur 0.8 -- -- 95
2019-10-17 08:00:00 8.2 10 Sudoeste 22 Sur 0.2 -- -- 91
2019-10-17 07:00:00 8.2 12 Sur 31 Sudoeste 0 -- -- 86
2019-10-17 06:00:00 8.2 14 Sur 24 Sudoeste 0 -- -- 86
2019-10-17 05:00:00 8.3 12 Sur 27 Sudoeste 0 -- -- 84
2019-10-17 04:00:00 8.2 15 Sur 33 Sudoeste 0 -- -- 83
2019-10-17 03:00:00 8.5 11 Sudoeste 26 Oeste 0 -- -- 80
2019-10-17 02:00:00 4.2 8 Nordeste 15 Oeste 0 -- -- 92
2019-10-17 01:00:00 8 8 Sudoeste 24 Sudoeste 0 -- -- 81
2019-10-17 00:00:00 8.7 17 Sudoeste 30 Sudoeste 0 -- -- 77
2019-10-16 23:00:00 8.5 10 Sudoeste 26 Sudoeste 0 -- -- 80
2019-10-16 22:00:00 8.6 12 Sur 24 Sur 0 -- -- 79
2019-10-16 21:00:00 8.7 13 Sur 22 Sur 0 -- -- 79
2019-10-16 20:00:00 8.9 12 Sur 36 Sur 0 -- -- 78
2019-10-16 19:00:00 10 15 Sur 34 Sudoeste 0 -- -- 77
2019-10-16 18:00:00 12.2 19 Sur 38 Sur 0 -- -- 68
2019-10-16 17:00:00 12.8 19 Sur 36 Sudoeste 0 -- -- 68
2019-10-16 16:00:00 12.4 22 Sur 37 Sur 0 -- -- 70
2019-10-16 15:00:00 11.9 19 Sur 38 Sudoeste 0 -- -- 71
2019-10-16 14:00:00 11.1 18 Sur 34 Sur 0 -- -- 71
2019-10-16 13:00:00 10.1 15 Sur 30 Sur 0 -- -- 71
2019-10-16 12:00:00 10.1 12 Sur 21 Sudoeste 0 -- -- 72
2019-10-16 11:00:00 6.2 3 Norte 6 Norte 0 -- -- 88
2019-10-16 10:00:00 2.1 2 Sur 5 Sudoeste 0 -- -- 100
2019-10-16 09:00:00 -1.5 2 Sudoeste 8 Sudoeste 0 -- -- 99
2019-10-16 08:00:00 -1.9 0 Calma 5 Sur 0 -- -- 100
2019-10-16 07:00:00 -1.4 4 Sudoeste 7 Sudoeste 0 -- -- 99
2019-10-16 06:00:00 -0.8 4 Sur 7 Sudoeste 0 -- -- 99
2019-10-16 05:00:00 -0.5 2 Sudoeste 4 Sudoeste 0 -- -- 99
2019-10-16 04:00:00 0.6 6 Sur 9 Sudoeste 0 -- -- 100
2019-10-16 03:00:00 0.4 2 Este 8 Sur 0 -- -- 98
2019-10-16 02:00:00 1 2 Norte 8 Sur 0 -- -- 97
2019-10-16 01:00:00 2.7 0 Calma 8 Sur 0 -- -- 96
2019-10-16 00:00:00 3.7 5 Sur 9 Sudoeste 0 -- -- 96
2019-10-15 23:00:00 2.7 3 Sur 10 Sudoeste 0 -- -- 97
2019-10-15 22:00:00 2.2 4 Sudeste 9 Sudeste 0 -- -- 96
2019-10-15 21:00:00 3.1 5 Sur 11 Sur 0 -- -- 93
2019-10-15 20:00:00 5.3 9 Sur 13 Sudoeste 0 -- -- 85
2019-10-15 19:00:00 8.1 7 Sur 22 Sur 0 -- -- 68
2019-10-15 18:00:00 10.6 14 Sur 30 Sudoeste 0 -- -- 63
2019-10-15 17:00:00 11.3 17 Sur 33 Sur 0 -- -- 60
2019-10-15 16:00:00 10.8 17 Sur 33 Sudoeste 0 -- -- 62
2019-10-15 15:00:00 11 14 Sur 30 Sur 0 -- -- 61
2019-10-15 14:00:00 10.1 16 Sur 31 Sur 0 -- -- 64
2019-10-15 13:00:00 10.2 11 Sudoeste 21 Sur 0 -- -- 62
2019-10-15 12:00:00 10.5 3 Norte 17 Oeste 0 -- -- 52
2019-10-15 11:00:00 8.8 8 Norte 15 Norte 0 -- -- 53
2019-10-15 10:00:00 4 6 Sudeste 12 Sudeste 0 -- -- 83
2019-10-15 09:00:00 1.4 5 Este 10 Nordeste 0 -- -- 94
2019-10-15 08:00:00 0 3 Sudoeste 13 Sur 0 -- -- 94
2019-10-15 07:00:00 2 5 Sudeste 17 Norte 0 -- -- 87
2019-10-15 06:00:00 2.8 5 Oeste 18 Norte 0 -- -- 84
2019-10-15 05:00:00 2 5 Sur 23 Norte 0 -- -- 89
2019-10-15 04:00:00 3 10 Norte 30 Norte 0.2 -- -- 81
2019-10-15 03:00:00 3.1 14 Norte 26 Noroeste 0 -- -- 81
2019-10-15 02:00:00 3 14 Norte 21 Norte 0 -- -- 83
2019-10-15 01:00:00 3.1 6 Este 15 Este 0 -- -- 83
2019-10-15 00:00:00 4.1 9 Nordeste 19 Norte 0 -- -- 82
2019-10-14 23:00:00 4.6 7 Este 21 Norte 0 -- -- 81
2019-10-14 22:00:00 5 12 Norte 26 Norte 0 -- -- 78
2019-10-14 21:00:00 5.6 5 Sudoeste 22 Norte 0 -- -- 80
2019-10-14 20:00:00 4.5 7 Este 24 Norte 0.2 -- -- 87
2019-10-14 19:00:00 7.6 4 Sur 10 Sur 0 -- -- 91
2019-10-14 18:00:00 7.8 4 Norte 23 Sudoeste 5.6 -- -- 89
2019-10-14 17:00:00 7.6 4 Sur 33 Sudoeste 3.8 -- -- 92
2019-10-14 16:00:00 8 15 Sur 31 Sudoeste 0.4 -- -- 93
2019-10-14 15:00:00 8.9 15 Sur 35 Sudoeste 0 -- -- 83
2019-10-14 14:00:00 9.1 18 Sur 43 Sudoeste 0 -- -- 84
2019-10-14 13:00:00 10 24 Sur 40 Sur 0 -- -- 86
2019-10-14 12:00:00 8.9 21 Sur 48 Sudoeste 0 -- -- 97
2019-10-14 11:00:00 8.5 23 Sudoeste 46 Sur 2 -- -- 97
2019-10-14 10:00:00 9.5 22 Sudoeste 57 Sur 1 -- -- 98
2019-10-14 09:00:00 9.9 19 Sur 43 Sudoeste 2.4 -- -- 95
2019-10-14 08:00:00 11.1 22 Sudoeste 46 Sur 0 -- -- 80
2019-10-14 07:00:00 11.9 15 Sudoeste 39 Oeste 0 -- -- 75
2019-10-14 06:00:00 13.1 17 Sudoeste 36 Sur 0 -- -- 69
2019-10-14 05:00:00 13.5 16 Sudoeste 37 Sudoeste 0 -- -- 67
2019-10-14 04:00:00 14.2 14 Sudoeste 35 Sur 0 -- -- 64
2019-10-14 03:00:00 14.7 13 Sudoeste 31 Sudoeste 0 -- -- 62
2019-10-14 02:00:00 15.2 10 Sudoeste 31 Sudoeste 0 -- -- 59
2019-10-14 01:00:00 14.8 9 Sudoeste 17 Sudoeste 0 -- -- 62
2019-10-14 00:00:00 13.3 3 Sudeste 17 Sudoeste 0 -- -- 67
2019-10-13 23:00:00 9.5 5 Sudoeste 13 Sudoeste 0 -- -- 82
2019-10-13 22:00:00 10.1 2 Nordeste 12 Sudeste 0 -- -- 80
2019-10-13 21:00:00 11.4 5 Sur 13 Sudoeste 0 -- -- 75
2019-10-13 20:00:00 12.4 5 Sur 17 Sur 0 -- -- 72
2019-10-13 19:00:00 15 9 Sur 31 Oeste 0 -- -- 63
2019-10-13 18:00:00 16.6 13 Sudoeste 27 Sudoeste 0 -- -- 58
2019-10-13 17:00:00 16.4 13 Sur 27 Sur 0 -- -- 58
2019-10-13 16:00:00 15.9 14 Sur 28 Sur 0 -- -- 61
2019-10-13 15:00:00 15.3 13 Sur 29 Sur 0 -- -- 61
2019-10-13 14:00:00 14.8 16 Sur 31 Sur 0 -- -- 66
2019-10-13 13:00:00 13.9 17 Sur 36 Sur 0 -- -- 69
2019-10-13 12:00:00 14.2 15 Sur 43 Sur 0 -- -- 71
2019-10-13 11:00:00 12.5 20 Sur 40 Sudoeste 0 -- -- 79
2019-10-13 10:00:00 11.4 18 Sur 40 Sur 0 -- -- 84
2019-10-13 09:00:00 11.4 12 Sudoeste 29 Sudoeste 0 -- -- 91
2019-10-13 08:00:00 11.7 11 Sudoeste 24 Sur 0 -- -- 91
2019-10-13 07:00:00 11.9 9 Sudoeste 31 Sudoeste 0 -- -- 84
2019-10-13 06:00:00 12.3 14 Sudoeste 31 Sudoeste 0 -- -- 81
2019-10-13 05:00:00 13.1 18 Sur 34 Sur 0 -- -- 74
2019-10-13 04:00:00 13.4 6 Sur 28 Sudoeste 0 -- -- 72
2019-10-13 03:00:00 13.6 13 Sudoeste 31 Sudoeste 0 -- -- 70
2019-10-13 02:00:00 14.3 14 Sudoeste 27 Sudoeste 0 -- -- 64
2019-10-13 01:00:00 15.2 13 Oeste 29 Oeste 0 -- -- 59
2019-10-13 00:00:00 15.3 10 Sudoeste 18 Sudoeste 0 -- -- 57
2019-10-12 23:00:00 15.5 8 Sudoeste 22 Oeste 0 -- -- 55
2019-10-12 22:00:00 16.7 5 Sur 23 Sudeste 0 -- -- 49
2019-10-12 21:00:00 16.7 3 Sudeste 14 Sur 0 -- -- 49
2019-10-12 20:00:00 16.8 5 Oeste 21 Sudoeste 0 -- -- 50
2019-10-12 19:00:00 18.3 8 Sudoeste 39 Sudoeste 0 -- -- 48
2019-10-12 18:00:00 20.2 17 Sudoeste 36 Sur 0 -- -- 45
2019-10-12 17:00:00 19.9 12 Sur 29 Sur 0 -- -- 47
2019-10-12 16:00:00 19.8 12 Sur 27 Sudoeste 0 -- -- 45
2019-10-12 15:00:00 20.9 13 Sur 28 Oeste 0 -- -- 46
2019-10-12 14:00:00 20.5 14 Sur 25 Sur 0 -- -- 44
2019-10-12 13:00:00 20.1 12 Sur 30 Sur 0 -- -- 45
2019-10-12 12:00:00 19.6 15 Sur 30 Sur 0 -- -- 49
2019-10-12 11:00:00 17.6 17 Sur 32 Sur 0 -- -- 57
2019-10-12 10:00:00 15.9 8 Sur 14 Sudoeste 0 -- -- 61
2019-10-12 09:00:00 12.7 5 Sur 9 Norte 0 -- -- 79
2019-10-12 08:00:00 13.3 5 Norte 12 Sur 0 -- -- 77
2019-10-12 07:00:00 13.2 4 Sur 10 Sudeste 0 -- -- 78
2019-10-12 06:00:00 14.2 6 Sur 11 Sudeste 0 -- -- 76
2019-10-12 05:00:00 15.7 7 Sur 17 Sur 0 -- -- 70
2019-10-12 04:00:00 16.1 12 Sur 20 Sudoeste 0 -- -- 69
2019-10-12 03:00:00 16.1 12 Sur 19 Sur 0 -- -- 70
2019-10-12 02:00:00 16 11 Sur 17 Sur 0 -- -- 71
2019-10-12 01:00:00 16 7 Sur 21 Sudoeste 0 -- -- 71
2019-10-12 00:00:00 15.4 5 Sur 10 Sur 0 -- -- 74
2019-10-11 23:00:00 13.9 3 Sudoeste 9 Sudoeste 0 -- -- 79
2019-10-11 22:00:00 15.2 3 Sudeste 13 Sur 0 -- -- 74
2019-10-11 21:00:00 17.1 10 Sur 16 Sur 0 -- -- 65
2019-10-11 20:00:00 17.9 12 Sur 32 Sur 0 -- -- 62
2019-10-11 19:00:00 18.6 10 Sur 21 Sudoeste 0 -- -- 61
2019-10-11 18:00:00 19.2 9 Sudoeste 26 Sudoeste 0 -- -- 59
2019-10-11 17:00:00 20.4 15 Sur 37 Sudoeste 0 -- -- 58
2019-10-11 16:00:00 21.3 15 Sur 29 Sur 0 -- -- 54
2019-10-11 15:00:00 20.8 14 Sudoeste 26 Sudoeste 0 -- -- 61
2019-10-11 14:00:00 20.4 11 Sudoeste 23 Sur 0 -- -- 63
2019-10-11 13:00:00 19.5 14 Sur 22 Sudoeste 0 -- -- 61
2019-10-11 12:00:00 20.1 10 Sur 16 Sur 0 -- -- 59
2019-10-11 11:00:00 16.5 0 Calma 3 Norte 0 -- -- 64
2019-10-11 10:00:00 8.9 0 Calma 5 Sur 0 -- -- 100
2019-10-11 09:00:00 3.7 0 Calma 6 Sur 0 -- -- 99
2019-10-11 08:00:00 3.6 0 Calma 9 Sudoeste 0 -- -- 97
2019-10-11 07:00:00 3.7 0 Calma 6 Sudoeste 0 -- -- 98
2019-10-11 06:00:00 3.8 0 Calma 6 Sudoeste 0 -- -- 97
2019-10-11 05:00:00 3.8 0 Calma 8 Sur 0 -- -- 95
2019-10-11 04:00:00 4 3 Sudoeste 4 Sudoeste 0 -- -- 95
2019-10-11 03:00:00 4.5 0 Calma 5 Sudoeste 0 -- -- 91
2019-10-11 02:00:00 5.3 2 Sur 6 Sudoeste 0 -- -- 90
2019-10-11 01:00:00 5.7 0 Calma 5 Sur 0 -- -- 91
2019-10-11 00:00:00 6.6 4 Sur 5 Sur 0 -- -- 87
2019-10-10 23:00:00 7.8 0 Calma 5 Sudoeste 0 -- -- 80
2019-10-10 22:00:00 8.9 4 Sur 6 Sur 0 -- -- 74
2019-10-10 21:00:00 11.8 0 Calma 12 Sur 0 -- -- 64
2019-10-10 20:00:00 16.7 7 Sur 29 Sudoeste 0 -- -- 52
2019-10-10 19:00:00 19.9 14 Sur 29 Sur 0 -- -- 47
2019-10-10 18:00:00 22.1 14 Sur 32 Sur 0 -- -- 43
2019-10-10 17:00:00 22.5 15 Sur 37 Sur 0 -- -- 44
2019-10-10 16:00:00 21.4 19 Sur 33 Sudoeste 0 -- -- 49
2019-10-10 15:00:00 20.8 19 Sur 37 Sur 0 -- -- 52
2019-10-10 14:00:00 20.5 15 Sur 28 Sur 0 -- -- 48
2019-10-10 13:00:00 19.5 11 Sudoeste 17 Sur 0 -- -- 52
2019-10-10 12:00:00 16.9 3 Norte 6 Nordeste 0 -- -- 61
2019-10-10 11:00:00 13.4 0 Calma 3 Norte 0 -- -- 64
2019-10-10 10:00:00 5.8 0 Calma 4 Sur 0 -- -- 100
2019-10-10 09:00:00 0.6 0 Calma 4 Sur 0 -- -- 100
2019-10-10 08:00:00 0.4 0 Calma 5 Sudoeste 0 -- -- 99
2019-10-10 07:00:00 0.7 0 Calma 4 Sur 0 -- -- 100
2019-10-10 06:00:00 1.1 0 Calma 5 Sur 0 -- -- 98
2019-10-10 05:00:00 1.5 0 Calma 5 Sur 0 -- -- 97
2019-10-10 04:00:00 2.2 2 Sur 5 Sudoeste 0 -- -- 96
2019-10-10 03:00:00 3.1 0 Calma 8 Sudoeste 0 -- -- 93
2019-10-10 02:00:00 3.5 0 Calma 4 Sur 0 -- -- 89
2019-10-10 01:00:00 4.8 2 Nordeste 5 Norte 0 -- -- 89
2019-10-10 00:00:00 6.4 0 Calma 6 Sudeste 0 -- -- 85
2019-10-09 23:00:00 7.2 0 Calma 7 Sudeste 0 -- -- 80
2019-10-09 22:00:00 8.9 3 Sur 7 Sudeste 0 -- -- 78
2019-10-09 21:00:00 11 3 Sur 10 Sudeste 0 -- -- 72
2019-10-09 20:00:00 13.6 5 Sur 12 Nordeste 0 -- -- 68
2019-10-09 19:00:00 21.2 5 Este 16 Sur 0 -- -- 44
2019-10-09 18:00:00 23.9 10 Sur 21 Sur 0 -- -- 41
2019-10-09 17:00:00 24.3 12 Sur 25 Sudoeste 0 -- -- 43
2019-10-09 16:00:00 24 13 Sur 30 Sudoeste 0 -- -- 42
2019-10-09 15:00:00 23 13 Sur 31 Sur 0 -- -- 45
2019-10-09 14:00:00 22.4 13 Sur 24 Sur 0 -- -- 47
2019-10-09 13:00:00 21.9 4 Nordeste 8 Nordeste 0 -- -- 51
2019-10-09 12:00:00 19.5 4 Nordeste 9 Nordeste 0 -- -- 60
2019-10-09 11:00:00 17.2 5 Nordeste 10 Nordeste 0 -- -- 71
2019-10-09 10:00:00 12.5 0 Calma 10 Sudeste 0 -- -- 88
2019-10-09 09:00:00 7 5 Sur 9 Sudoeste 0 -- -- 98
2019-10-09 08:00:00 7 5 Sur 14 Norte 0 -- -- 98
2019-10-09 07:00:00 6.3 0 Calma 12 Sudoeste 0 -- -- 97
2019-10-09 06:00:00 6.6 0 Calma 10 Sur 0 -- -- 94
2019-10-09 05:00:00 7.1 4 Norte 12 Sudoeste 0 -- -- 94
2019-10-09 04:00:00 6.7 0 Calma 9 Sudoeste 0 -- -- 94
2019-10-09 03:00:00 7.2 4 Sur 8 Sur 0 -- -- 90
2019-10-09 02:00:00 8.2 0 Calma 6 Sudeste 0 -- -- 86
2019-10-09 01:00:00 9.8 2 Sur 5 Sur 0 -- -- 81
2019-10-09 00:00:00 9.7 0 Calma 7 Sudeste 0 -- -- 81
2019-10-08 23:00:00 12.2 5 Sudeste 9 Sur 0 -- -- 70
2019-10-08 22:00:00 12.2 5 Sur 7 Sudeste 0 -- -- 70
2019-10-08 21:00:00 14.1 4 Sur 13 Sur 0 -- -- 64
2019-10-08 20:00:00 17.8 10 Sur 16 Sudoeste 0 -- -- 53
2019-10-08 19:00:00 22 6 Sudoeste 21 Sudoeste 0 -- -- 41
2019-10-08 18:00:00 24.8 12 Sur 28 Sudoeste 0 -- -- 36
2019-10-08 17:00:00 24.9 16 Sur 33 Sudoeste 0 -- -- 36
2019-10-08 16:00:00 24.8 14 Sur 28 Sudoeste 0 -- -- 37
2019-10-08 15:00:00 23.5 17 Sur 30 Sudoeste 0 -- -- 38
2019-10-08 14:00:00 23.2 17 Sur 29 Sur 0 -- -- 40
2019-10-08 13:00:00 22.5 14 Sur 26 Sur 0 -- -- 41
2019-10-08 12:00:00 21.5 13 Sur 24 Sur 0 -- -- 42
2019-10-08 11:00:00 19.5 10 Sur 18 Sudoeste 0 -- -- 50
2019-10-08 10:00:00 10.7 0 Calma 4 Sudoeste 0 -- -- 85
2019-10-08 09:00:00 4.5 0 Calma 5 Sur 0 -- -- 97
2019-10-08 08:00:00 4.4 5 Sur 7 Sudoeste 0 -- -- 99
2019-10-08 07:00:00 4.4 0 Calma 6 Sur 0 -- -- 95
2019-10-08 06:00:00 4.8 3 Sudoeste 5 Sudoeste 0 -- -- 96
2019-10-08 05:00:00 5.2 0 Calma 5 Sudoeste 0 -- -- 93
2019-10-08 04:00:00 6.1 0 Calma 5 Sudoeste 0 -- -- 92
2019-10-08 03:00:00 6.2 3 Sur 7 Sudeste 0 -- -- 89
2019-10-08 02:00:00 6.1 0 Calma 6 Sudoeste 0 -- -- 83
2019-10-08 01:00:00 6.4 0 Calma 5 Sudoeste 0 -- -- 81
2019-10-08 00:00:00 7.6 3 Sur 4 Sudeste 0 -- -- 75
2019-10-07 23:00:00 8.5 0 Calma 5 Sudoeste 0 -- -- 69
2019-10-07 22:00:00 9.5 3 Sudeste 8 Sur 0 -- -- 65
2019-10-07 21:00:00 12.3 4 Sur 10 Sur 0 -- -- 57
2019-10-07 20:00:00 15.4 4 Sur 9 Sudoeste 0 -- -- 54
2019-10-07 19:00:00 21.2 3 Noroeste 19 Norte 0 -- -- 42
2019-10-07 18:00:00 23.3 14 Norte 26 Norte 0 -- -- 36
2019-10-07 17:00:00 24.8 14 Norte 25 Norte 0 -- -- 35
2019-10-07 16:00:00 24.9 18 Norte 26 Norte 0 -- -- 36
2019-10-07 15:00:00 24.6 13 Norte 26 Norte 0 -- -- 36
2019-10-07 14:00:00 23.8 11 Norte 29 Norte 0 -- -- 33
2019-10-07 13:00:00 22.9 22 Norte 33 Norte 0 -- -- 40
2019-10-07 12:00:00 21.9 13 Norte 19 Norte 0 -- -- 33
2019-10-07 11:00:00 20.9 2 Norte 8 Norte 0 -- -- 35
2019-10-07 10:00:00 12.8 3 Sur 7 Sudeste 0 -- -- 58
2019-10-07 09:00:00 5 0 Calma 5 Sur 0 -- -- 78
2019-10-07 08:00:00 5.3 0 Calma 7 Sudoeste 0 -- -- 76
2019-10-07 07:00:00 5.7 0 Calma 6 Sudeste 0 -- -- 77
2019-10-07 06:00:00 7.5 3 Norte 12 Este 0 -- -- 69
2019-10-07 05:00:00 7.2 4 Nordeste 8 Nordeste 0 -- -- 72
2019-10-07 04:00:00 7.1 0 Calma 6 Sur 0 -- -- 68
2019-10-07 03:00:00 9.5 0 Calma 22 Este 0 -- -- 65
2019-10-07 02:00:00 13.2 9 Nordeste 18 Norte 0 -- -- 54
2019-10-07 01:00:00 13.3 9 Norte 15 Norte 0 -- -- 56
2019-10-07 00:00:00 9.4 5 Sudeste 9 Sudeste 0 -- -- 71
2019-10-06 23:00:00 9.3 3 Sudeste 8 Sudeste 0 -- -- 70
2019-10-06 22:00:00 9.8 3 Sur 8 Sudeste 0 -- -- 67
2019-10-06 21:00:00 11.6 4 Sur 11 Sudeste 0 -- -- 60
2019-10-06 20:00:00 14.2 6 Sudeste 14 Norte 0 -- -- 50
2019-10-06 19:00:00 20.4 14 Norte 20 Norte 0 -- -- 30
2019-10-06 18:00:00 23.8 7 Sudoeste 17 Sudoeste 0 -- -- 27
2019-10-06 17:00:00 23.6 10 Sudoeste 24 Sudoeste 0 -- -- 40
2019-10-06 16:00:00 23.1 12 Sur 21 Sudoeste 0 -- -- 40
2019-10-06 15:00:00 22.4 10 Sudoeste 26 Sudoeste 0 -- -- 41
2019-10-06 14:00:00 20.9 14 Sur 25 Sur 0 -- -- 46
2019-10-06 13:00:00 21.4 10 Sudoeste 15 Sur 0 -- -- 39
2019-10-06 12:00:00 20.2 2 Norte 5 Norte 0 -- -- 32
2019-10-06 11:00:00 14.3 0 Calma 4 Nordeste 0 -- -- 53
2019-10-06 10:00:00 5.5 4 Sur 6 Sudeste 0 -- -- 82
2019-10-06 09:00:00 0.6 0 Calma 5 Sur 0 -- -- 88
2019-10-06 08:00:00 0.4 2 Sur 4 Sur 0 -- -- 90
2019-10-06 07:00:00 0.8 3 Sur 5 Sur 0 -- -- 90
2019-10-06 06:00:00 1.3 5 Sur 6 Sudoeste 0 -- -- 94
2019-10-06 05:00:00 2.3 2 Sur 9 Sudoeste 0 -- -- 89
2019-10-06 04:00:00 3.3 2 Sur 9 Sudeste 0 -- -- 96
2019-10-06 03:00:00 4.3 0 Calma 5 Sur 0 -- -- 97
2019-10-06 02:00:00 6.3 3 Nordeste 7 Sudeste 0 -- -- 90
2019-10-06 01:00:00 6.2 0 Calma 8 Sur 0 -- -- 92
2019-10-06 00:00:00 7.3 0 Calma 10 Sudeste 0 -- -- 89
2019-10-05 23:00:00 9.8 5 Sudeste 12 Sudeste 0 -- -- 82
2019-10-05 22:00:00 10.5 3 Sudeste 10 Sudeste 0 -- -- 82
2019-10-05 21:00:00 10.9 5 Sur 10 Sudoeste 0 -- -- 78
2019-10-05 20:00:00 13.5 6 Sur 14 Sudoeste 0 -- -- 74
2019-10-05 19:00:00 20.3 7 Sudoeste 21 Sudoeste 0 -- -- 54
2019-10-05 18:00:00 22.1 12 Sur 29 Sur 0 -- -- 50
2019-10-05 17:00:00 22.1 16 Sur 28 Sur 0 -- -- 50
2019-10-05 16:00:00 22.6 12 Sur 30 Sudoeste 0 -- -- 49
2019-10-05 15:00:00 21 17 Sur 29 Sudoeste 0 -- -- 52
2019-10-05 14:00:00 20.3 16 Sur 29 Sur 0 -- -- 53
2019-10-05 13:00:00 19.3 14 Sur 23 Sur 0 -- -- 56
2019-10-05 12:00:00 18.5 12 Sur 21 Sur 0 -- -- 58
2019-10-05 11:00:00 14 3 Norte 5 Norte 0 -- -- 72
2019-10-05 10:00:00 7 0 Calma 4 Nordeste 0 -- -- 100
2019-10-05 09:00:00 2 0 Calma 3 Sudoeste 0 -- -- 100
2019-10-05 08:00:00 1.5 0 Calma 3 Sur 0 -- -- 100
2019-10-05 07:00:00 2.4 0 Calma 4 Sur 0 -- -- 100
2019-10-05 06:00:00 3.5 0 Calma 3 Sur 0 -- -- 100
2019-10-05 05:00:00 4 0 Calma 5 Sudoeste 0 -- -- 100
2019-10-05 04:00:00 4.2 0 Calma 3 Sudoeste 0 -- -- 98
2019-10-05 03:00:00 4.6 0 Calma 3 Sur 0 -- -- 96
2019-10-05 02:00:00 6.4 0 Calma 3 Sudoeste 0 -- -- 97
2019-10-05 01:00:00 7.9 0 Calma 6 Sudeste 0 -- -- 88
2019-10-05 00:00:00 8.8 4 Sur 7 Sudeste 0 -- -- 88
2019-10-04 23:00:00 9 3 Sur 7 Sudoeste 0 -- -- 88
2019-10-04 22:00:00 10.1 3 Sur 6 Sudeste 0 -- -- 84
2019-10-04 21:00:00 12.4 3 Sur 16 Sur 0 -- -- 70
2019-10-04 20:00:00 16.3 5 Sudoeste 18 Sudoeste 0 -- -- 52
2019-10-04 19:00:00 20.3 12 Sur 24 Sur 0 -- -- 42
2019-10-04 18:00:00 21.7 16 Sur 29 Sudoeste 0 -- -- 39
2019-10-04 17:00:00 22.2 15 Sur 28 Sudoeste 0 -- -- 37
2019-10-04 16:00:00 22.2 15 Sur 27 Sur 0 -- -- 38
2019-10-04 15:00:00 21.3 15 Sur 32 Sur 0 -- -- 40
2019-10-04 14:00:00 20.3 19 Sur 34 Sudoeste 0 -- -- 41
2019-10-04 13:00:00 19.9 17 Sur 32 Sur 0 -- -- 42
2019-10-04 12:00:00 18.8 17 Sur 29 Sur 0 -- -- 45
2019-10-04 11:00:00 17.7 10 Sur 19 Sur 0 -- -- 48
2019-10-04 10:00:00 8.6 3 Nordeste 6 Nordeste 0 -- -- 78
2019-10-04 09:00:00 2.2 3 Sur 8 Sur 0 -- -- 97
2019-10-04 08:00:00 1.8 0 Calma 6 Sur 0 -- -- 95
2019-10-04 07:00:00 2.2 4 Sur 7 Sur 0 -- -- 95
2019-10-04 06:00:00 3 0 Calma 8 Sur 0 -- -- 90
2019-10-04 05:00:00 3.8 3 Sudoeste 6 Sur 0 -- -- 88
2019-10-04 04:00:00 5.3 0 Calma 8 Oeste 0 -- -- 77
2019-10-04 03:00:00 5.4 5 Sur 9 Sudoeste 0 -- -- 76
2019-10-04 02:00:00 7.5 2 Nordeste 9 Sudeste 0 -- -- 69
2019-10-04 01:00:00 9.2 4 Sudeste 14 Sudeste 0 -- -- 63
2019-10-04 00:00:00 9.8 3 Norte 11 Nordeste 0 -- -- 65
2019-10-03 23:00:00 7.3 0 Calma 4 Oeste 0 -- -- 75
2019-10-03 22:00:00 8.7 3 Sur 8 Sur 0 -- -- 69
2019-10-03 21:00:00 10.9 5 Sur 9 Sudeste 0 -- -- 60
2019-10-03 20:00:00 15.9 0 Calma 19 Norte 0 -- -- 45
2019-10-03 19:00:00 20.7 9 Norte 27 Norte 0 -- -- 36
2019-10-03 18:00:00 21.1 14 Norte 26 Norte 0 -- -- 30
2019-10-03 17:00:00 23.3 13 Norte 27 Norte 0 -- -- 25
2019-10-03 16:00:00 23.6 12 Norte 26 Sur 0 -- -- 26
2019-10-03 15:00:00 20.9 12 Sudoeste 27 Sudoeste 0 -- -- 41
2019-10-03 14:00:00 18.9 17 Sur 26 Sudoeste 0 -- -- 44
2019-10-03 13:00:00 20.7 10 Norte 19 Nordeste 0 -- -- 28
2019-10-03 12:00:00 19.1 7 Nordeste 14 Nordeste 0 -- -- 37
2019-10-03 11:00:00 14.4 2 Norte 5 Norte 0 -- -- 50
2019-10-03 10:00:00 7.2 0 Calma 6 Sudoeste 0 -- -- 84
2019-10-03 09:00:00 0.3 0 Calma 4 Sur 0 -- -- 99
2019-10-03 08:00:00 -0.3 0 Calma 4 Sudeste 0 -- -- 99
2019-10-03 07:00:00 -0.3 0 Calma 5 Sur 0 -- -- 99
2019-10-03 06:00:00 0.9 3 Sur 6 Sudoeste 0 -- -- 99
2019-10-03 05:00:00 0.4 2 Sur 4 Sur 0 -- -- 97
2019-10-03 04:00:00 1.1 0 Calma 6 Sudoeste 0 -- -- 97
2019-10-03 03:00:00 1.3 0 Calma 6 Sudeste 0 -- -- 96
2019-10-03 02:00:00 1.8 2 Sudoeste 6 Sudoeste 0 -- -- 96
2019-10-03 01:00:00 2.3 2 Sur 3 Sudeste 0 -- -- 91
2019-10-03 00:00:00 3.7 0 Calma 4 Sudeste 0 -- -- 88
2019-10-02 23:00:00 4.9 2 Sur 6 Sudeste 0 -- -- 83
2019-10-02 22:00:00 6.6 3 Sur 8 Sudeste 0 -- -- 76
2019-10-02 21:00:00 9.2 0 Calma 11 Nordeste 0 -- -- 67
2019-10-02 20:00:00 12.7 3 Norte 14 Nordeste 0 -- -- 56
2019-10-02 19:00:00 18.4 8 Nordeste 17 Norte 0 -- -- 41
2019-10-02 18:00:00 20.4 7 Norte 18 Sudoeste 0 -- -- 36
2019-10-02 17:00:00 19.8 12 Sur 23 Sur 0 -- -- 44
2019-10-02 16:00:00 19.9 14 Sur 26 Sudoeste 0 -- -- 44
2019-10-02 15:00:00 19.3 11 Sudoeste 26 Sur 0 -- -- 45
2019-10-02 14:00:00 20 13 Norte 30 Norte 0 -- -- 25
2019-10-02 13:00:00 19.6 13 Nordeste 28 Norte 0 -- -- 25
2019-10-02 12:00:00 20 3 Sudoeste 10 Norte 0 -- -- 26
2019-10-02 11:00:00 17.6 2 Nordeste 8 Nordeste 0 -- -- 37
2019-10-02 10:00:00 11.6 2 Sur 8 Sudeste 0 -- -- 51
2019-10-02 09:00:00 7 8 Nordeste 19 Nordeste 0 -- -- 66
2019-10-02 08:00:00 6.8 15 Nordeste 19 Nordeste 0 -- -- 72
2019-10-02 07:00:00 7.1 7 Nordeste 17 Este 0 -- -- 73
2019-10-02 06:00:00 7.4 6 Nordeste 18 Nordeste 0 -- -- 64
2019-10-02 05:00:00 8.4 8 Nordeste 21 Norte 0 -- -- 79
2019-10-02 04:00:00 8.4 8 Norte 15 Norte 0 -- -- 86
2019-10-02 03:00:00 9.1 4 Sudeste 13 Nordeste 0 -- -- 82
2019-10-02 02:00:00 10.8 7 Norte 24 Norte 0 -- -- 72
2019-10-02 01:00:00 11.5 12 Norte 28 Norte 0 -- -- 69
2019-10-02 00:00:00 12.3 14 Norte 27 Norte 0 -- -- 64
2019-10-01 23:00:00 10.6 7 Nordeste 13 Norte 0 -- -- 75
2019-10-01 22:00:00 9.4 6 Sur 12 Sudeste 0 -- -- 81
2019-10-01 21:00:00 10.7 6 Sur 9 Sur 0 -- -- 76
2019-10-01 20:00:00 14.4 9 Nordeste 27 Norte 0 -- -- 62
2019-10-01 19:00:00 17.6 14 Norte 29 Norte 0 -- -- 50
2019-10-01 18:00:00 20.4 8 Oeste 21 Oeste 0 -- -- 47
2019-10-01 17:00:00 20.2 9 Noroeste 36 Norte 0 -- -- 48
2019-10-01 16:00:00 19 19 Norte 36 Norte 0 -- -- 55
2019-10-01 15:00:00 18.9 22 Norte 40 Norte 0 -- -- 56
2019-10-01 14:00:00 18.8 22 Norte 37 Norte 0 -- -- 45
2019-10-01 13:00:00 18.8 10 Norte 27 Norte 0 -- -- 50
2019-10-01 12:00:00 17.8 11 Noroeste 24 Noroeste 0 -- -- 55
2019-10-01 11:00:00 18.6 4 Nordeste 12 Oeste 0 -- -- 43
2019-10-01 10:00:00 12 0 Calma 9 Sur 0 -- -- 64
2019-10-01 09:00:00 3.6 0 Calma 5 Sur 0 -- -- 87
2019-10-01 08:00:00 3.7 0 Calma 9 Sudoeste 0 -- -- 84
2019-10-01 07:00:00 3.4 3 Sur 7 Sur 0 -- -- 85
2019-10-01 06:00:00 5 3 Sur 5 Sudeste 0 -- -- 79
2019-10-01 05:00:00 4.7 0 Calma 8 Sudoeste 0 -- -- 81
2019-10-01 04:00:00 3.6 0 Calma 5 Sudeste 0 -- -- 81
2019-10-01 03:00:00 3.9 0 Calma 8 Sudoeste 0 -- -- 77
2019-10-01 02:00:00 4.3 0 Calma 10 Sur 0 -- -- 76
2019-10-01 01:00:00 5 0 Calma 8 Sur 0 -- -- 74
2019-10-01 00:00:00 6 5 Sudoeste 10 Sur 0 -- -- 69
2019-09-30 23:00:00 7.8 0 Calma 10 Sur 0 -- -- 59
2019-09-30 22:00:00 9.9 4 Sur 8 Sur 0 -- -- 50
2019-09-30 21:00:00 14.2 4 Norte 16 Sur 0 -- -- 35
2019-09-30 20:00:00 18.6 10 Sur 25 Sur 0 -- -- 24
2019-09-30 19:00:00 22.1 15 Sur 33 Sudoeste 0 -- -- 21
2019-09-30 18:00:00 23.6 17 Sur 32 Sudoeste 0 -- -- 22
2019-09-30 17:00:00 24.4 14 Sur 33 Sur 0 -- -- 26
2019-09-30 16:00:00 24 16 Sur 34 Sudeste 0 -- -- 29
2019-09-30 15:00:00 23.1 15 Sur 32 Sudoeste 0 -- -- 31
2019-09-30 14:00:00 22.4 17 Sur 30 Sudoeste 0 -- -- 31
2019-09-30 13:00:00 21.6 14 Sur 24 Sur 0 -- -- 34
2019-09-30 12:00:00 21.2 10 Sur 21 Sur 0 -- -- 38
2019-09-30 11:00:00 16 2 Norte 6 Nordeste 0 -- -- 51
2019-09-30 10:00:00 9.9 0 Calma 6 Sudoeste 0 -- -- 77
2019-09-30 09:00:00 1.5 0 Calma 7 Sudoeste 0 -- -- 97
2019-09-30 08:00:00 0.9 0 Calma 6 Sudoeste 0 -- -- 96
2019-09-30 07:00:00 1.7 4 Sur 8 Sudoeste 0 -- -- 97
2019-09-30 06:00:00 2.8 3 Sur 4 Sudoeste 0 -- -- 94
2019-09-30 05:00:00 2.8 2 Sur 4 Sur 0 -- -- 91
2019-09-30 04:00:00 3.3 2 Sur 4 Sur 0 -- -- 88
2019-09-30 03:00:00 3.6 0 Calma 4 Sur 0 -- -- 87
2019-09-30 02:00:00 4.3 0 Calma 4 Sur 0 -- -- 81
2019-09-30 01:00:00 5.2 0 Calma 4 Sur 0 -- -- 77
2019-09-30 00:00:00 6.5 0 Calma 5 Sudeste 0 -- -- 73
2019-09-29 23:00:00 7.2 0 Calma 7 Sudoeste 0 -- -- 69
2019-09-29 22:00:00 9.2 3 Sur 6 Sur 0 -- -- 63
2019-09-29 21:00:00 11.5 4 Sur 14 Sur 0 -- -- 58
2019-09-29 20:00:00 15.7 8 Sur 14 Sudoeste 0 -- -- 48
2019-09-29 19:00:00 22.6 10 Sur 19 Sur 0 -- -- 30
2019-09-29 18:00:00 23.9 12 Sur 26 Sur 0 -- -- 27
2019-09-29 17:00:00 23.9 15 Sur 27 Sudoeste 0 -- -- 29
2019-09-29 16:00:00 23.8 14 Sur 32 Sudoeste 0 -- -- 31
2019-09-29 15:00:00 22.8 16 Sur 34 Sudoeste 0 -- -- 35
2019-09-29 14:00:00 21.8 17 Sur 30 Sudoeste 0 -- -- 37
2019-09-29 13:00:00 21.3 15 Sur 28 Sur 0 -- -- 38
2019-09-29 12:00:00 21.1 12 Sur 22 Sudoeste 0 -- -- 39
2019-09-29 11:00:00 19.6 0 Calma 3 Sur 0 -- -- 51
2019-09-29 10:00:00 11.9 0 Calma 5 Sudeste 0 -- -- 68
2019-09-29 09:00:00 4 4 Sur 12 Sur 0 -- -- 92
2019-09-29 08:00:00 1.9 0 Calma 5 Sur 0 -- -- 92
2019-09-29 07:00:00 2.4 4 Sur 10 Sudoeste 0 -- -- 92
2019-09-29 06:00:00 2.2 4 Sudoeste 10 Sudoeste 0 -- -- 92
2019-09-29 05:00:00 3.1 3 Sudoeste 11 Sur 0 -- -- 88
2019-09-29 04:00:00 3 3 Sur 7 Sur 0 -- -- 86
2019-09-29 03:00:00 3.5 0 Calma 6 Sur 0 -- -- 82
2019-09-29 02:00:00 3.4 0 Calma 6 Sur 0 -- -- 85
2019-09-29 01:00:00 4.9 2 Sudeste 7 Sudoeste 0 -- -- 79
2019-09-29 00:00:00 5.9 0 Calma 6 Sur 0 -- -- 75
2019-09-28 23:00:00 7.9 3 Sur 7 Sur 0 -- -- 73
2019-09-28 22:00:00 9.9 4 Sur 6 Sur 0 -- -- 75
2019-09-28 21:00:00 13.2 4 Sur 10 Sudeste 0 -- -- 61
2019-09-28 20:00:00 17.8 6 Sur 17 Sur 0 -- -- 44
2019-09-28 19:00:00 22.5 9 Sur 25 Sur 0 -- -- 36
2019-09-28 18:00:00 23.5 13 Sur 27 Sudoeste 0 -- -- 34
2019-09-28 17:00:00 23.6 15 Sur 31 Sur 0 -- -- 34
2019-09-28 16:00:00 23.6 16 Sur 29 Sur 0 -- -- 33
2019-09-28 15:00:00 22.7 16 Sur 31 Sur 0 -- -- 35
2019-09-28 14:00:00 22 14 Sur 29 Sudoeste 0 -- -- 36
2019-09-28 13:00:00 20.4 16 Sur 26 Sur 0 -- -- 39
2019-09-28 12:00:00 19.8 14 Sur 24 Sur 0 -- -- 42
2019-09-28 11:00:00 17.4 7 Sur 16 Sur 0 -- -- 52
2019-09-28 10:00:00 7.7 2 Nordeste 5 Nordeste 0 -- -- 100
2019-09-28 09:00:00 2.3 0 Calma 12 Sudoeste 0 -- -- 100
2019-09-28 08:00:00 1.1 0 Calma 5 Sudoeste 0 -- -- 99
2019-09-28 07:00:00 1.7 0 Calma 6 Sur 0 -- -- 100
2019-09-28 06:00:00 2.2 4 Sur 9 Sur 0 -- -- 100
2019-09-28 05:00:00 2.4 2 Sur 4 Sur 0 -- -- 97
2019-09-28 04:00:00 2.8 3 Sur 4 Sur 0 -- -- 98
2019-09-28 03:00:00 3.7 0 Calma 5 Sur 0 -- -- 95
2019-09-28 02:00:00 4.4 0 Calma 7 Sur 0 -- -- 91
2019-09-28 01:00:00 5.3 4 Sur 5 Sudeste 0 -- -- 87
2019-09-28 00:00:00 6.5 0 Calma 8 Oeste 0 -- -- 83
2019-09-27 23:00:00 7.3 0 Calma 7 Sudoeste 0 -- -- 79
2019-09-27 22:00:00 9.2 3 Sur 7 Sudoeste 0 -- -- 69
2019-09-27 21:00:00 10.6 5 Sur 12 Sudoeste 0 -- -- 66
2019-09-27 20:00:00 13.8 6 Sur 12 Sudoeste 0 -- -- 60
2019-09-27 19:00:00 21.7 6 Norte 20 Norte 0 -- -- 32
2019-09-27 18:00:00 22.6 10 Norte 24 Norte 0 -- -- 32
2019-09-27 17:00:00 23.7 9 Sudoeste 24 Sur 0 -- -- 41
2019-09-27 16:00:00 23.2 13 Sur 25 Sur 0 -- -- 42
2019-09-27 15:00:00 22.5 16 Sur 27 Sudoeste 0 -- -- 42
2019-09-27 14:00:00 22.3 11 Sur 22 Sudoeste 0 -- -- 46
2019-09-27 13:00:00 22 7 Sur 12 Sur 0 -- -- 41
2019-09-27 12:00:00 20.4 6 Nordeste 9 Nordeste 0 -- -- 43
2019-09-27 11:00:00 18.1 0 Calma 5 Sur 0 -- -- 58
2019-09-27 10:00:00 10.2 0 Calma 5 Sudeste 0 -- -- 95
2019-09-27 09:00:00 3.8 0 Calma 10 Sudoeste 0 -- -- 99
2019-09-27 08:00:00 3 4 Oeste 6 Nordeste 0 -- -- 100
2019-09-27 07:00:00 3.4 0 Calma 6 Sudoeste 0 -- -- 99
2019-09-27 06:00:00 3.7 0 Calma 5 Sudoeste 0 -- -- 100
2019-09-27 05:00:00 4.5 0 Calma 5 Sur 0 -- -- 100
2019-09-27 04:00:00 5.2 0 Calma 5 Sudeste 0 -- -- 97
2019-09-27 03:00:00 5.3 0 Calma 4 Sudoeste 0 -- -- 94
2019-09-27 02:00:00 6.4 0 Calma 4 Sudoeste 0 -- -- 93
2019-09-27 01:00:00 7.3 0 Calma 5 Sudoeste 0 -- -- 91
2019-09-27 00:00:00 8.4 2 Sur 6 Oeste 0 -- -- 88
2019-09-26 23:00:00 9.6 3 Sur 6 Sudeste 0 -- -- 83
2019-09-26 22:00:00 10.5 3 Sur 6 Sur 0 -- -- 83
2019-09-26 21:00:00 12.6 5 Sur 12 Sudoeste 0 -- -- 79
2019-09-26 20:00:00 16.6 7 Sudoeste 21 Sur 0 -- -- 65
2019-09-26 19:00:00 21.3 9 Sur 26 Sudoeste 0 -- -- 49
2019-09-26 18:00:00 22.4 14 Sur 28 Sur 0 -- -- 47
2019-09-26 17:00:00 22.3 15 Sur 30 Sur 0 -- -- 48
2019-09-26 16:00:00 21.8 17 Sur 31 Sudoeste 0 -- -- 50
2019-09-26 15:00:00 20.9 17 Sur 34 Sudoeste 0 -- -- 52
2019-09-26 14:00:00 19.9 19 Sur 31 Sur 0 -- -- 54
2019-09-26 13:00:00 19 18 Sur 32 Sur 0 -- -- 55
2019-09-26 12:00:00 19.2 13 Sur 26 Sur 0 -- -- 55
2019-09-26 11:00:00 17.5 12 Sur 20 Sudoeste 0 -- -- 64
2019-09-26 10:00:00 10.7 0 Calma 5 Sudoeste 0 -- -- 89
2019-09-26 09:00:00 4.4 0 Calma 4 Nordeste 0 -- -- 100
2019-09-26 08:00:00 4.3 0 Calma 5 Sur 0 -- -- 100
2019-09-26 07:00:00 3.9 0 Calma 4 Sur 0 -- -- 99
2019-09-26 06:00:00 4.3 0 Calma 4 Sur 0 -- -- 99
2019-09-26 05:00:00 4.6 0 Calma 4 Sudeste 0 -- -- 99
2019-09-26 04:00:00 5.3 0 Calma 6 Sur 0 -- -- 100
2019-09-26 03:00:00 5.6 3 Sur 5 Sur 0 -- -- 100
2019-09-26 02:00:00 5.7 0 Calma 4 Sur 0 -- -- 97
2019-09-26 01:00:00 6.2 2 Sur 6 Sudeste 0 -- -- 96
2019-09-26 00:00:00 7.3 2 Sur 6 Sur 0 -- -- 95
2019-09-25 23:00:00 8 4 Sur 7 Sudoeste 0 -- -- 91
2019-09-25 22:00:00 9.5 4 Sur 10 Sudoeste 0 -- -- 87
2019-09-25 21:00:00 11.8 4 Sur 9 Sudoeste 0 -- -- 80
2019-09-25 20:00:00 15.6 2 Sudoeste 17 Norte 0 -- -- 69
2019-09-25 19:00:00 19.5 3 Sudoeste 18 Sudoeste 0 -- -- 54
2019-09-25 18:00:00 20.2 10 Sudoeste 22 Sur 0 -- -- 53
2019-09-25 17:00:00 20.2 9 Sur 24 Sur 0 -- -- 54
2019-09-25 16:00:00 19.5 14 Sudoeste 24 Sudoeste 0 -- -- 62
2019-09-25 15:00:00 18.6 14 Sudoeste 24 Sudoeste 0 -- -- 64
2019-09-25 14:00:00 17.7 14 Sudoeste 26 Sudoeste 0 -- -- 64
2019-09-25 13:00:00 16.9 14 Sur 24 Sudoeste 0 -- -- 67
2019-09-25 12:00:00 17.6 5 Nordeste 10 Norte 0 -- -- 49
2019-09-25 11:00:00 14.7 7 Norte 12 Norte 0 -- -- 61
2019-09-25 10:00:00 11.6 6 Nordeste 17 Norte 0 -- -- 78
2019-09-25 09:00:00 8.4 8 Nordeste 20 Nordeste 0 -- -- 87
2019-09-25 08:00:00 7.7 10 Nordeste 22 Este 0 -- -- 89
2019-09-25 07:00:00 8.1 9 Norte 26 Nordeste 0 -- -- 88
2019-09-25 06:00:00 8.7 12 Nordeste 25 Nordeste 0 -- -- 88
2019-09-25 05:00:00 9.7 16 Nordeste 25 Nordeste 0 -- -- 85
2019-09-25 04:00:00 9.7 12 Nordeste 19 Nordeste 0 -- -- 85
2019-09-25 03:00:00 10.6 8 Nordeste 16 Norte 0 -- -- 86
2019-09-25 02:00:00 9.9 5 Este 12 Norte 0 -- -- 94
2019-09-25 01:00:00 8.5 0 Calma 8 Sudoeste 0 -- -- 99
2019-09-25 00:00:00 9.2 4 Sur 9 Sur 0 -- -- 99
2019-09-24 23:00:00 9.8 7 Sur 11 Sudoeste 0 -- -- 98
2019-09-24 22:00:00 10.6 4 Sur 12 Sudoeste 0 -- -- 95
2019-09-24 21:00:00 13.4 5 Sur 12 Sudeste 0 -- -- 92
2019-09-24 20:00:00 16.1 8 Sur 21 Sur 0 -- -- 88
2019-09-24 19:00:00 19.2 11 Sudoeste 26 Sur 0 -- -- 71
2019-09-24 18:00:00 20.6 13 Sudoeste 27 Sur 0 -- -- 62
2019-09-24 17:00:00 19 15 Sur 33 Sudoeste 0 -- -- 66
2019-09-24 16:00:00 19.6 16 Sur 31 Sur 0 -- -- 63
2019-09-24 15:00:00 18.9 16 Sur 28 Sudoeste 0 -- -- 63
2019-09-24 14:00:00 19.8 14 Sur 28 Sudoeste 0 -- -- 58
2019-09-24 13:00:00 19.9 14 Sudoeste 28 Oeste 0 -- -- 57
2019-09-24 12:00:00 22.2 7 Noroeste 25 Norte 0 -- -- 45
2019-09-24 11:00:00 19.8 3 Nordeste 17 Sudoeste 0 -- -- 49
2019-09-24 10:00:00 11.6 7 Sur 13 Sudeste 0 -- -- 95
2019-09-24 09:00:00 5 2 Sur 11 Sudoeste 0 -- -- 100
2019-09-24 08:00:00 4.2 2 Sudeste 10 Sur 0 -- -- 100
2019-09-24 07:00:00 4.1 0 Calma 10 Sur 0 -- -- 100
2019-09-24 06:00:00 3.9 0 Calma 4 Sur 0 -- -- 100
2019-09-24 05:00:00 4.4 3 Sudoeste 6 Norte 0 -- -- 100
2019-09-24 04:00:00 5.7 0 Calma 4 Sur 0 -- -- 100
2019-09-24 03:00:00 5.8 0 Calma 4 Sur 0 -- -- 100
2019-09-24 02:00:00 5.9 0 Calma 4 Sur 0 -- -- 99
2019-09-24 01:00:00 6.9 0 Calma 7 Norte 0 -- -- 100
2019-09-24 00:00:00 7.9 0 Calma 6 Sudoeste 0 -- -- 99
2019-09-23 23:00:00 8.4 0 Calma 6 Sudoeste 0 -- -- 96
2019-09-23 22:00:00 10 3 Sur 5 Sudoeste 0 -- -- 97
2019-09-23 21:00:00 12.3 5 Sur 14 Sur 0 -- -- 89
2019-09-23 20:00:00 14.7 8 Sur 25 Sur 0 -- -- 80
2019-09-23 19:00:00 17.4 14 Sur 31 Sur 0 -- -- 68
2019-09-23 18:00:00 19 16 Sur 30 Sudoeste 0 -- -- 62
2019-09-23 17:00:00 18.9 17 Sur 29 Sur 0 -- -- 62
2019-09-23 16:00:00 18.4 16 Sur 30 Sur 0 -- -- 65
2019-09-23 15:00:00 17.5 18 Sur 37 Sur 0 -- -- 66
2019-09-23 14:00:00 16.7 18 Sur 32 Sudoeste 0 -- -- 66
2019-09-23 13:00:00 15.8 18 Sur 31 Sudoeste 0 -- -- 71
2019-09-23 12:00:00 15.3 14 Sur 26 Sur 0 -- -- 70
2019-09-23 11:00:00 13.2 5 Nordeste 8 Norte 0 -- -- 80
2019-09-23 10:00:00 8.3 0 Calma 6 Norte 0 -- -- 97
2019-09-23 09:00:00 3.6 4 Sur 7 Sudoeste 0 -- -- 100
2019-09-23 08:00:00 2.7 0 Calma 8 Sudoeste 0 -- -- 100
2019-09-23 07:00:00 3.1 0 Calma 5 Sur 0 -- -- 100
2019-09-23 06:00:00 3.1 0 Calma 6 Sur 0 -- -- 100
2019-09-23 05:00:00 3.9 2 Sur 5 Sur 0 -- -- 100
2019-09-23 04:00:00 4.8 2 Oeste 9 Sur 0 -- -- 99
2019-09-23 03:00:00 4.9 0 Calma 4 Sur 0 -- -- 99
2019-09-23 02:00:00 5.4 0 Calma 4 Sudeste 0 -- -- 99
2019-09-23 01:00:00 5.7 2 Sur 7 Sudoeste 0 -- -- 97
2019-09-23 00:00:00 6.3 3 Sur 8 Sur 0 -- -- 97
2019-09-22 23:00:00 8.2 5 Sudoeste 8 Sudoeste 0 -- -- 96
2019-09-22 22:00:00 10.1 0 Calma 6 Sur 0 -- -- 94
2019-09-22 21:00:00 11.8 4 Sur 12 Sur 0 -- -- 90
2019-09-22 20:00:00 12.7 7 Sur 20 Sur 0 -- -- 86
2019-09-22 19:00:00 15 8 Sudoeste 21 Sudoeste 0 -- -- 77
2019-09-22 18:00:00 16.1 10 Sur 26 Sudoeste 0 -- -- 72
2019-09-22 17:00:00 15 11 Sudoeste 27 Sur 0 -- -- 78
2019-09-22 16:00:00 14.5 14 Sur 24 Sur 0 -- -- 79
2019-09-22 15:00:00 16.4 11 Sudoeste 24 Norte 0 -- -- 69
2019-09-22 14:00:00 16.5 4 Noroeste 20 Oeste 0 -- -- 55
2019-09-22 13:00:00 16 6 Noroeste 17 Noroeste 0 -- -- 60
2019-09-22 12:00:00 14.7 7 Noroeste 15 Oeste 0 -- -- 69
2019-09-22 11:00:00 12.7 2 Noroeste 18 Oeste 0 -- -- 83
2019-09-22 10:00:00 10.9 5 Noroeste 14 Oeste 0 -- -- 92
2019-09-22 09:00:00 11.1 6 Sudoeste 26 Oeste 0 -- -- 98
2019-09-22 08:00:00 11.1 11 Sur 22 Sur 0.2 -- -- 100
2019-09-22 07:00:00 12.1 7 Sur 21 Sudoeste 2.4 -- -- 100
2019-09-22 06:00:00 12.2 11 Sudoeste 39 Sur 1 -- -- 100
2019-09-22 05:00:00 12.2 16 Sur 32 Sudoeste 2.4 -- -- 100
2019-09-22 04:00:00 12.2 15 Sur 38 Sur 2.6 -- -- 100
2019-09-22 03:00:00 11.9 16 Sur 57 Sur 2 -- -- 100
2019-09-22 02:00:00 12.1 32 Sur 60 Sur 4.4 -- -- 99
2019-09-22 01:00:00 12.7 25 Sur 48 Sur 1.4 -- -- 100
2019-09-22 00:00:00 12.7 13 Sudoeste 35 Sur 3.2 -- -- 100